Weather History for Athens, OH

Change the Weather History Date:

Wednesday, October 31, 2012

  Actual Average (KPKB) Record (KPKB)
Temperature  
Mean Temperature 40 °F 51 °F  
Max Temperature 42 °F 62 °F 83 °F (1950)
Min Temperature 37 °F 40 °F 22 °F (1988)
Degree Days  
Heating Degree Days 26 14  
Cooling Degree Days 0 0  
Moisture  
Dew Point 37 °F    
Average Humidity 91    
Maximum Humidity 94    
Minimum Humidity 86    
Precipitation  
Precipitation 0.00 in 0.10 in 0.51 in (2009)
Sea Level Pressure  
Sea Level Pressure 29.66 in    
Wind  
Wind Speed 10 mph (West)    
Max Wind Speed 16 mph    
Max Gust Speed 24 mph    
Visibility 7 miles    
Events Rain    
T = Trace of Precipitation, MM = Missing Value Source: NWS Daily Summary

Daily Weather History Graph

Daily Weather History Graph

Search for Another Location

Airport:

Trip Planner

Search our weather history database for the weather conditions in past years. The results will help you decide how hot, cold, wet, or windy it might be!

Date:

Astronomy

Oct. 31, 2012 Rise Set
Actual Time 7:56 AM EDT 6:28 PM EDT
Civil Twilight 7:28 AM EDT 6:56 PM EDT
Nautical Twilight 6:56 AM EDT 7:27 PM EDT
Astronomical Twilight 6:25 AM EDT 7:58 PM EDT
Moon 7:39 PM EDT (10/31) 9:35 AM EDT (10/31)
Length of Visible Light 11h 27m
Length of Day
10h 32m
Full, 97% of the Moon is Illuminated
Oct 31
Full
Nov 6
Last Quarter
Nov 13
New
Nov 20
First Quarter
Nov 28
Full

Hourly Weather History & Observations

Time (EDT) Temp. Windchill Dew Point Humidity Pressure Visibility Wind Dir Wind Speed Gust Speed Precip Events Conditions
12:15 AM 38.5 °F 32.1 °F 36.5 °F 93% 29.55 in 10.0 mi West 9.2 mph - N/A   Light Drizzle
12:35 AM 38.5 °F 31.6 °F 36.5 °F 93% 29.55 in 7.0 mi West 10.4 mph - N/A Rain Rain
12:55 AM 38.5 °F 32.1 °F 36.5 °F 93% 29.55 in 10.0 mi West 9.2 mph - N/A Rain Light Rain
1:15 AM 38.5 °F 31.6 °F 36.7 °F 93% 29.55 in 5.0 mi West 10.4 mph - N/A   Drizzle
1:35 AM 38.5 °F 32.7 °F 36.7 °F 93% 29.55 in 4.0 mi West 8.1 mph - N/A   Drizzle
1:55 AM 38.3 °F 31.4 °F 36.7 °F 94% 29.56 in 5.0 mi West 10.4 mph - N/A Rain Light Rain
2:15 AM 38.3 °F 30.9 °F 36.3 °F 93% 29.56 in 10.0 mi West 11.5 mph - N/A Rain Light Rain
2:35 AM 38.1 °F 30.2 °F 36.0 °F 92% 29.56 in 10.0 mi West 12.7 mph 17.3 mph N/A Rain Light Rain
2:55 AM 37.8 °F 29.4 °F 35.4 °F 91% 29.57 in 10.0 mi West 13.8 mph 18.4 mph N/A Rain Light Rain
3:15 AM 37.6 °F 31.6 °F 35.6 °F 93% 29.57 in 10.0 mi West 8.1 mph - N/A Rain Rain
3:35 AM 37.4 °F 30.8 °F 34.9 °F 91% 29.58 in 10.0 mi West 9.2 mph - N/A   Drizzle
3:55 AM 37.4 °F 31.4 °F 35.2 °F 92% 29.58 in 10.0 mi West 8.1 mph - N/A   Drizzle
4:15 AM 37.4 °F 32.8 °F 35.6 °F 93% 29.58 in 5.0 mi WSW 5.8 mph - N/A   Drizzle
4:35 AM 37.4 °F 30.8 °F 35.8 °F 94% 29.58 in 7.0 mi WSW 9.2 mph - N/A Rain Rain
4:55 AM 37.6 °F 32.3 °F 35.8 °F 93% 29.58 in 7.0 mi West 6.9 mph - N/A   Drizzle
5:15 AM 37.8 °F 31.3 °F 36.1 °F 94% 29.59 in 7.0 mi WSW 9.2 mph - N/A   Light Drizzle
5:35 AM 37.9 °F 32.1 °F 36.1 °F 93% 29.59 in 7.0 mi WSW 8.1 mph - N/A   Drizzle
5:55 AM 37.9 °F 31.5 °F 36.1 °F 93% 29.59 in 7.0 mi WSW 9.2 mph - N/A   Light Drizzle
6:15 AM 38.3 °F 31.9 °F 36.1 °F 92% 29.60 in 7.0 mi WSW 9.2 mph - N/A   Light Drizzle
6:35 AM 38.3 °F 31.9 °F 36.1 °F 92% 29.61 in 7.0 mi West 9.2 mph - N/A   Light Drizzle
6:55 AM 37.9 °F 31.5 °F 36.1 °F 93% 29.61 in 4.0 mi West 9.2 mph - N/A   Drizzle
7:15 AM 37.9 °F 31.5 °F 36.1 °F 93% 29.61 in 5.0 mi WSW 9.2 mph - N/A   Light Drizzle
7:35 AM 37.9 °F 30.9 °F 36.1 °F 93% 29.62 in 5.0 mi West 10.4 mph - N/A   Light Drizzle
7:55 AM 37.9 °F 30.9 °F 36.0 °F 93% 29.62 in 7.0 mi WSW 10.4 mph - N/A   Drizzle
8:15 AM 37.9 °F 31.5 °F 36.0 °F 93% 29.63 in 10.0 mi West 9.2 mph - N/A   Light Drizzle
8:35 AM 38.1 °F 31.7 °F 36.0 °F 92% 29.63 in 10.0 mi WSW 9.2 mph - N/A   Unknown
8:55 AM 38.3 °F 31.9 °F 36.0 °F 91% 29.64 in 10.0 mi WSW 9.2 mph 16.1 mph N/A   Unknown
9:15 AM 38.3 °F 31.9 °F 36.1 °F 92% 29.64 in 10.0 mi WSW 9.2 mph - N/A   Unknown
9:35 AM 38.3 °F 31.4 °F 36.5 °F 93% 29.64 in 5.0 mi West 10.4 mph - N/A   Mist
9:55 AM 38.3 °F 32.5 °F 36.5 °F 93% 29.64 in 4.0 mi WSW 8.1 mph - N/A   Light Drizzle
10:15 AM 38.7 °F 32.4 °F 36.9 °F 93% 29.65 in 3.0 mi WSW 9.2 mph 16.1 mph N/A   Mist
10:35 AM 39.2 °F 33.6 °F 36.9 °F 91% 29.65 in 5.0 mi West 8.1 mph - N/A   Mist
10:55 AM 39.4 °F 32.7 °F 37.0 °F 91% 29.65 in 10.0 mi West 10.4 mph - N/A   Unknown
11:15 AM 39.6 °F 32.1 °F 37.2 °F 91% 29.66 in 5.0 mi West 12.7 mph - N/A   Mist
11:35 AM 40.1 °F 33.6 °F 37.6 °F 91% 29.66 in 10.0 mi West 10.4 mph - N/A   Unknown
11:55 AM 40.3 °F 33.9 °F 37.8 °F 91% 29.66 in 7.0 mi West 10.4 mph - N/A   Unknown
12:15 PM 41.0 °F 34.3 °F 37.8 °F 88% 29.66 in 10.0 mi West 11.5 mph - N/A   Unknown
12:35 PM 41.0 °F 35.2 °F 37.6 °F 88% 29.66 in 4.0 mi West 9.2 mph 17.3 mph N/A   Mist
12:55 PM 40.5 °F 34.6 °F 38.1 °F 91% 29.66 in 4.0 mi West 9.2 mph - N/A   Mist
1:15 PM 41.4 °F 34.3 °F 38.1 °F 88% 29.66 in 10.0 mi WSW 12.7 mph 19.6 mph N/A   Unknown
1:35 PM 41.5 °F 35.0 °F 37.8 °F 86% 29.66 in 7.0 mi West 11.5 mph - N/A   Unknown
1:55 PM 41.2 °F 34.5 °F 38.5 °F 90% 29.67 in 4.0 mi West 11.5 mph 16.1 mph N/A   Mist
2:15 PM 41.5 °F 35.4 °F 39.0 °F 91% 29.67 in 5.0 mi West 10.4 mph - N/A   Mist
2:35 PM 42.1 °F 36.1 °F 39.0 °F 89% 29.66 in 7.0 mi West 10.4 mph 17.3 mph N/A   Unknown
2:55 PM 42.3 °F 36.3 °F 38.5 °F 86% 29.66 in 10.0 mi West 10.4 mph - N/A   Unknown
3:15 PM 40.6 °F 32.3 °F 37.9 °F 90% 29.66 in 5.0 mi West 16.1 mph 21.9 mph N/A Rain Light Rain
3:35 PM 41.0 °F 32.8 °F 38.3 °F 90% 29.67 in 5.0 mi WSW 16.1 mph 19.6 mph N/A   Mist
3:55 PM 40.1 °F 32.7 °F 37.4 °F 90% 29.68 in 7.0 mi West 12.7 mph 24.2 mph N/A   Unknown
4:15 PM 40.3 °F 33.0 °F 37.4 °F 89% 29.69 in 10.0 mi West 12.7 mph 18.4 mph N/A   Unknown
4:35 PM 40.1 °F 32.0 °F 36.5 °F 87% 29.69 in 10.0 mi West 15.0 mph 21.9 mph N/A   Unknown
4:55 PM 40.1 °F 33.6 °F 36.7 °F 88% 29.69 in 10.0 mi West 10.4 mph - N/A   Unknown
5:15 PM 39.6 °F 33.0 °F 36.9 °F 90% 29.70 in 5.0 mi WSW 10.4 mph - N/A   Mist
5:35 PM 39.4 °F 32.3 °F 37.4 °F 93% 29.71 in 5.0 mi West 11.5 mph - N/A   Mist
5:55 PM 39.4 °F 33.8 °F 37.4 °F 93% 29.72 in 3.0 mi West 8.1 mph - N/A   Mist
6:15 PM 39.4 °F 33.2 °F 37.2 °F 92% 29.72 in 5.0 mi West 9.2 mph - N/A   Mist
6:35 PM 39.2 °F 32.5 °F 37.4 °F 93% 29.73 in 5.0 mi West 10.4 mph - N/A   Light Drizzle
6:55 PM 39.4 °F 33.2 °F 37.4 °F 93% 29.73 in 10.0 mi West 9.2 mph - N/A   Light Drizzle
7:15 PM 39.4 °F 32.7 °F 37.4 °F 93% 29.74 in 7.0 mi WSW 10.4 mph 17.3 mph N/A   Light Drizzle
7:35 PM 39.2 °F 33.0 °F 36.7 °F 91% 29.74 in 7.0 mi West 9.2 mph 18.4 mph N/A Rain Light Rain
7:55 PM 39.2 °F 33.0 °F 36.7 °F 91% 29.74 in 7.0 mi West 9.2 mph - N/A Rain Light Rain
8:15 PM 39.2 °F 32.5 °F 36.7 °F 91% 29.75 in 10.0 mi WSW 10.4 mph - N/A Rain Light Rain
8:35 PM 39.2 °F 32.5 °F 36.5 °F 90% 29.75 in 7.0 mi West 10.4 mph - N/A Rain Light Rain
8:55 PM 39.2 °F 33.0 °F 36.5 °F 90% 29.75 in 7.0 mi WSW 9.2 mph - N/A   Unknown
9:15 PM 39.2 °F 32.5 °F 36.3 °F 89% 29.76 in 10.0 mi West 10.4 mph 18.4 mph N/A   Unknown
9:35 PM 39.2 °F 33.6 °F 36.1 °F 89% 29.76 in 10.0 mi West 8.1 mph 19.6 mph N/A   Unknown
9:55 PM 38.8 °F 32.1 °F 36.1 °F 90% 29.77 in 10.0 mi West 10.4 mph 16.1 mph N/A   Unknown
10:15 PM 38.5 °F 30.7 °F 36.3 °F 92% 29.77 in 7.0 mi WSW 12.7 mph - N/A   Unknown
10:35 PM 38.5 °F 32.1 °F 36.5 °F 93% 29.77 in 4.0 mi West 9.2 mph - N/A   Mist
10:55 PM 38.3 °F 31.9 °F 36.5 °F 93% 29.77 in 5.0 mi West 9.2 mph - N/A   Light Drizzle
11:15 PM 38.3 °F 30.9 °F 36.3 °F 93% 29.77 in 7.0 mi WSW 11.5 mph 16.1 mph N/A   Unknown
11:35 PM 38.3 °F 31.9 °F 36.1 °F 92% 29.77 in 10.0 mi WSW 9.2 mph - N/A   Unknown
11:55 PM 38.3 °F 31.9 °F 36.0 °F 91% 29.77 in 7.0 mi West 9.2 mph - N/A Rain Light Rain